Time;durP1;ratioP1;P1;durP2;ratioP2;P2;SDS_P1;SDS_P2;PMS_P1;PMS_P2;Temp;Humidity;BMP_temperature;BMP_pressure;BME280_temperature;BME280_humidity;BME280_pressure;Samples;Min_cycle;Max_cycle;Signal;HPM_P1;HPM_P2
2023/09/22 00:02:47;;;;;;;3.35;1.40;;;;;;;23.29;72.35;99882.72;4977159;28;20054;-81
2023/09/22 00:05:41;;;;;;;3.50;1.27;;;;;;;23.29;72.28;99888.28;4980652;28;20053;-81
2023/09/22 00:08:36;;;;;;;1.65;1.10;;;;;;;23.29;72.21;99882.72;4978510;28;20058;-81
2023/09/22 00:11:31;;;;;;;3.25;0.90;;;;;;;23.29;72.40;99882.72;4978000;28;20050;-83
2023/09/22 00:14:28;;;;;;;4.85;1.20;;;;;;;23.27;72.38;99890.69;4992402;28;20431;-82
2023/09/22 00:17:20;;;;;;;5.47;1.80;;;;;;;23.29;72.31;99882.72;4998061;28;20053;-85
2023/09/22 00:20:13;;;;;;;2.80;1.00;;;;;;;23.27;72.40;99882.34;4997483;28;20054;-83
2023/09/22 00:23:07;;;;;;;1.83;0.82;;;;;;;23.26;72.67;99883.59;4999258;28;20061;-82
2023/09/22 00:26:02;;;;;;;8.70;2.10;;;;;;;23.26;72.50;99886.34;4996735;28;20049;-81
2023/09/22 00:28:57;;;;;;;5.95;1.13;;;;;;;23.27;72.29;99896.22;5002103;28;20049;-82
2023/09/22 00:31:51;;;;;;;10.57;1.45;;;;;;;23.28;72.19;99887.50;4985567;28;20522;-83
2023/09/22 00:34:46;;;;;;;4.75;2.03;;;;;;;23.30;72.24;99887.06;5002711;28;20101;-84
2023/09/22 00:37:40;;;;;;;7.88;1.30;;;;;;;23.27;72.58;99882.34;4997855;28;20045;-84
2023/09/22 00:40:32;;;;;;;3.15;1.00;;;;;;;23.26;72.39;99875.25;4998061;28;20054;-84
2023/09/22 00:43:24;;;;;;;3.88;1.33;;;;;;;23.23;72.49;99873.31;5002259;28;20062;-84
2023/09/22 00:46:16;;;;;;;7.03;1.52;;;;;;;23.19;73.38;99873.38;4998887;28;20049;-84
2023/09/22 00:49:09;;;;;;;2.70;0.93;;;;;;;23.13;73.11;99882.59;5002240;28;20057;-84
2023/09/22 00:52:04;;;;;;;3.67;1.50;;;;;;;23.23;73.19;99879.66;4994672;28;20041;-84
2023/09/22 00:54:58;;;;;;;7.75;1.58;;;;;;;23.16;73.61;99873.44;4985551;28;20053;-84
2023/09/22 00:57:53;;;;;;;5.68;1.70;;;;;;;23.21;73.22;99868.16;4988009;28;20049;-84
2023/09/22 01:00:47;;;;;;;4.82;1.38;;;;;;;23.25;72.67;99865.38;4999950;28;20704;-84
2023/09/22 01:03:40;;;;;;;5.68;1.95;;;;;;;23.06;73.34;99850.19;4989411;28;20045;-79
2023/09/22 01:06:34;;;;;;;6.28;1.90;;;;;;;23.05;73.85;99847.84;5000749;28;20069;-82
2023/09/22 01:09:28;;;;;;;5.88;1.55;;;;;;;23.15;73.28;99849.69;4997645;28;20046;-82
2023/09/22 01:12:22;;;;;;;5.63;1.38;;;;;;;23.19;72.92;99844.84;4989014;28;20052;-83
2023/09/22 01:15:16;;;;;;;2.83;1.20;;;;;;;23.21;72.74;99842.44;4999529;28;20049;-82
2023/09/22 01:18:13;;;;;;;5.97;1.52;;;;;;;23.23;72.71;99834.47;5003566;28;20057;-82
2023/09/22 01:21:08;;;;;;;4.63;1.88;;;;;;;23.24;72.57;99841.59;4998093;28;20057;-83
2023/09/22 01:24:02;;;;;;;7.90;1.75;;;;;;;23.23;72.55;99829.72;4998971;28;20052;-83
2023/09/22 01:26:55;;;;;;;;;;;;;;;23.25;72.34;99820.97;5002637;28;20057;-83
2023/09/22 01:29:49;;;;;;;4.47;2.17;;;;;;;23.21;72.28;99820.25;5000609;28;19914;-83
2023/09/22 01:32:44;;;;;;;9.15;1.83;;;;;;;23.22;72.44;99832.91;4997554;28;20041;-83
2023/09/22 01:35:38;;;;;;;6.38;1.70;;;;;;;23.22;72.05;99832.91;5001021;28;20042;-83
2023/09/22 01:38:33;;;;;;;4.30;1.70;;;;;;;23.21;72.42;99836.91;4998154;28;20053;-83
2023/09/22 01:41:23;;;;;;;4.10;1.77;;;;;;;23.20;72.26;99832.56;4998325;28;20053;-83
2023/09/22 01:44:13;;;;;;;6.72;2.10;;;;;;;23.21;72.54;99834.88;5011621;28;20054;-82
2023/09/22 01:47:08;;;;;;;4.50;1.90;;;;;;;23.21;72.33;99848.00;5015835;28;20052;-83
2023/09/22 01:50:02;;;;;;;5.25;2.22;;;;;;;23.20;72.25;99849.19;5018018;28;20044;-83
2023/09/22 01:52:54;;;;;;;2.92;1.92;;;;;;;23.16;72.70;99840.16;5000412;28;20054;-83
2023/09/22 01:55:47;;;;;;;5.13;2.33;;;;;;;23.12;72.81;99836.63;5003920;28;20514;-83
2023/09/22 01:58:39;;;;;;;4.07;1.65;;;;;;;23.13;72.67;99841.78;5000847;28;20054;-83
2023/09/22 02:01:28;;;;;;;4.38;2.08;;;;;;;22.98;73.50;99849.53;4994191;28;20057;-83
2023/09/22 02:04:23;;;;;;;4.60;1.73;;;;;;;22.74;74.79;99863.78;4980311;28;20045;-83
2023/09/22 02:07:17;;;;;;;4.68;1.60;;;;;;;22.94;73.80;99868.22;4986395;28;20049;-83
2023/09/22 02:10:14;;;;;;;2.80;1.60;;;;;;;23.07;73.03;99870.41;4991086;28;20050;-83
2023/09/22 02:13:09;;;;;;;7.03;2.28;;;;;;;23.13;72.68;99865.94;4987447;28;20511;-83
2023/09/22 02:16:03;;;;;;;5.90;1.95;;;;;;;23.17;72.52;99864.69;4970244;28;20041;-83
2023/09/22 02:18:58;;;;;;;4.07;1.75;;;;;;;23.17;72.33;99844.47;4988092;28;20050;-84
2023/09/22 02:21:52;;;;;;;5.97;2.50;;;;;;;23.09;72.98;99845.81;5000301;28;20499;-83
2023/09/22 02:24:42;;;;;;;6.07;2.28;;;;;;;23.07;72.76;99842.66;4983301;28;20057;-83
2023/09/22 02:27:36;;;;;;;5.55;2.40;;;;;;;23.03;72.91;99837.97;5000445;28;20054;-83
2023/09/22 02:30:31;;;;;;;14.18;3.13;;;;;;;23.02;73.10;99852.25;4997280;28;20049;-83
2023/09/22 02:33:25;;;;;;;6.40;2.60;;;;;;;23.02;72.97;99860.56;4988626;28;20058;-83
2023/09/22 02:36:21;;;;;;;9.75;2.58;;;;;;;22.99;73.13;99853.88;4999203;28;20522;-84
2023/09/22 02:39:18;;;;;;;10.20;2.55;;;;;;;22.99;72.91;99862.19;4998010;28;20045;-83
2023/09/22 02:42:13;;;;;;;6.88;2.47;;;;;;;22.98;73.47;99857.84;5000586;28;20042;-83
2023/09/22 02:45:07;;;;;;;7.15;3.00;;;;;;;22.97;73.45;99845.19;4998189;28;20529;-82
2023/09/22 02:48:02;;;;;;;8.40;1.83;;;;;;;22.95;73.51;99844.84;4986950;28;20104;-84
2023/09/22 02:51:01;;;;;;;7.35;2.63;;;;;;;22.97;73.58;99850.72;4986291;28;20049;-83
2023/09/22 02:53:58;;;;;;;6.38;2.30;;;;;;;22.97;73.45;99847.97;4997428;28;20041;-83
2023/09/22 02:56:52;;;;;;;8.70;3.30;;;;;;;22.93;73.11;99847.25;4997064;28;20053;-83
2023/09/22 02:59:47;;;;;;;7.15;1.95;;;;;;;22.97;73.24;99861.81;4997350;28;20045;-83
2023/09/22 03:02:42;;;;;;;6.00;2.83;;;;;;;22.96;73.14;99859.47;4987548;28;20053;-84
2023/09/22 03:05:35;;;;;;;7.43;2.08;;;;;;;22.96;73.32;99856.69;4997796;28;20049;-82
2023/09/22 03:08:30;;;;;;;7.20;2.40;;;;;;;22.95;73.50;99844.84;4996576;28;20061;-82
2023/09/22 03:11:25;;;;;;;13.50;3.28;;;;;;;22.95;73.62;99846.81;4982223;28;20282;-82
2023/09/22 03:14:19;;;;;;;10.48;2.35;;;;;;;22.95;73.01;99844.84;4985531;28;20068;-82
2023/09/22 03:17:14;;;;;;;7.70;3.08;;;;;;;22.95;73.17;99850.38;4995738;28;20041;-83
2023/09/22 03:20:10;;;;;;;4.25;1.67;;;;;;;22.94;73.17;99851.59;4983562;28;20053;-83
2023/09/22 03:23:06;;;;;;;5.40;2.58;;;;;;;22.94;73.10;99834.16;4988460;28;20423;-83
2023/09/22 03:26:05;;;;;;;6.38;2.22;;;;;;;22.93;72.90;99825.06;4960017;28;20452;-82
2023/09/22 03:29:00;;;;;;;5.20;2.15;;;;;;;22.93;72.92;99819.50;4971651;28;20066;-83
2023/09/22 03:31:52;;;;;;;12.43;2.15;;;;;;;22.93;72.87;99821.50;4974319;28;20050;-83
2023/09/22 03:34:46;;;;;;;5.65;2.00;;;;;;;22.92;72.58;99825.47;4976496;28;20064;-83
2023/09/22 03:37:40;;;;;;;4.53;1.40;;;;;;;22.89;72.62;99816.00;4974066;28;20050;-84
2023/09/22 03:40:35;;;;;;;5.20;1.80;;;;;;;22.87;72.62;99823.97;4996083;28;20049;-83
2023/09/22 03:43:30;;;;;;;7.93;2.03;;;;;;;22.88;72.69;99828.31;4996883;28;20049;-82
2023/09/22 03:46:24;;;;;;;3.95;1.75;;;;;;;22.87;72.71;99829.50;4979098;28;20045;-83
2023/09/22 03:49:19;;;;;;;6.28;2.30;;;;;;;22.86;72.31;99816.84;4989635;28;20054;-83
2023/09/22 03:52:13;;;;;;;8.95;1.95;;;;;;;22.85;72.15;99798.66;4996265;28;20045;-83
2023/09/22 03:55:08;;;;;;;6.85;1.55;;;;;;;22.86;72.01;99788.31;4999889;28;20049;-82
2023/09/22 03:58:00;;;;;;;10.77;1.60;;;;;;;22.83;72.07;99789.97;4997141;28;20037;-82
2023/09/22 04:00:54;;;;;;;6.25;2.03;;;;;;;22.84;72.19;99797.09;4998052;28;20057;-81
2023/09/22 04:03:49;;;;;;;6.53;2.65;;;;;;;22.80;72.31;99806.66;4983419;28;20791;-82
2023/09/22 04:06:45;;;;;;;4.90;1.75;;;;;;;22.83;72.22;99806.59;4982009;28;20054;-82
2023/09/22 04:09:39;;;;;;;5.82;1.60;;;;;;;22.84;71.99;99801.84;4978392;28;20404;-82
2023/09/22 04:12:30;;;;;;;5.05;1.88;;;;;;;22.81;72.15;99799.91;4972043;28;20053;-82
2023/09/22 04:15:23;;;;;;;6.88;1.58;;;;;;;22.81;72.14;99803.44;4991818;28;20049;-83
2023/09/22 04:18:15;;;;;;;2.08;0.95;;;;;;;22.87;71.94;99807.31;4998579;28;20058;-82
2023/09/22 04:21:09;;;;;;;4.93;1.67;;;;;;;22.88;71.50;99808.91;4982124;28;20045;-82
2023/09/22 04:24:03;;;;;;;6.70;1.67;;;;;;;22.89;71.52;99824.34;4987543;28;20058;-83
2023/09/22 04:26:55;;;;;;;7.32;2.15;;;;;;;22.85;71.53;99814.50;4975659;28;20407;-84
2023/09/22 04:29:45;;;;;;;3.40;1.33;;;;;;;22.82;71.37;99805.03;4978926;28;20041;-82
2023/09/22 04:32:37;;;;;;;3.47;1.35;;;;;;;22.82;71.68;99796.72;4992157;28;20049;-84
2023/09/22 04:35:32;;;;;;;3.65;1.60;;;;;;;22.80;71.82;99778.94;4984289;28;20045;-82
2023/09/22 04:38:27;;;;;;;5.38;1.60;;;;;;;22.77;71.86;99761.16;4983935;28;20042;-83
2023/09/22 04:41:21;;;;;;;9.80;2.03;;;;;;;22.75;71.91;99760.81;4972131;28;20428;-84
2023/09/22 04:44:16;;;;;;;9.30;1.88;;;;;;;22.72;71.64;99755.28;4984164;28;20046;-84
2023/09/22 04:47:11;;;;;;;8.98;2.40;;;;;;;22.66;71.89;99760.50;4980491;28;20054;-84
2023/09/22 04:50:05;;;;;;;5.55;1.90;;;;;;;22.61;72.23;99767.31;4977286;28;20066;-84
2023/09/22 04:53:01;;;;;;;7.22;1.83;;;;;;;22.57;71.76;99776.88;4988820;28;20042;-82
2023/09/22 04:56:02;;;;;;;7.97;1.55;;;;;;;22.26;73.73;99783.66;4959336;29;20047;-83
2023/09/22 04:58:57;;;;;;;3.97;1.38;;;;;;;22.55;72.87;99807.78;4957691;29;20408;-83
2023/09/22 05:01:51;;;;;;;3.05;1.58;;;;;;;22.65;72.41;99817.16;4973137;28;20108;-82
2023/09/22 05:04:46;;;;;;;6.88;1.92;;;;;;;22.71;71.88;99823.81;4969515;28;20050;-82
2023/09/22 05:07:41;;;;;;;8.93;1.67;;;;;;;22.73;71.69;99813.09;4980991;28;20054;-84
2023/09/22 05:10:33;;;;;;;2.80;1.63;;;;;;;22.74;71.74;99819.44;4985745;28;20054;-82
2023/09/22 05:13:25;;;;;;;12.30;2.13;;;;;;;22.74;71.91;99839.63;4985047;28;20045;-84
2023/09/22 05:16:18;;;;;;;8.13;2.10;;;;;;;22.77;71.78;99840.75;4987778;28;20057;-84
2023/09/22 05:19:10;;;;;;;5.28;2.33;;;;;;;22.76;71.72;99845.50;4989529;28;20042;-84
2023/09/22 05:22:04;;;;;;;14.93;1.88;;;;;;;22.77;71.75;99844.31;5006884;28;20049;-84
2023/09/22 05:24:57;;;;;;;5.85;2.17;;;;;;;22.73;71.88;99824.19;5003749;28;20045;-85
2023/09/22 05:27:49;;;;;;;11.25;2.15;;;;;;;22.74;72.04;99822.97;4986187;28;20046;-85
2023/09/22 05:30:38;;;;;;;5.50;1.83;;;;;;;22.70;71.97;99819.47;4987076;28;20520;-85
2023/09/22 05:33:36;;;;;;;6.47;2.22;;;;;;;22.68;71.95;99815.53;4976879;28;20050;-84
2023/09/22 05:36:28;;;;;;;5.50;1.70;;;;;;;22.64;72.47;99804.50;4984912;28;20089;-84
2023/09/22 05:39:20;;;;;;;10.45;1.80;;;;;;;22.67;72.45;99809.19;5002503;28;20053;-84
2023/09/22 05:42:11;;;;;;;7.03;3.13;;;;;;;22.71;72.12;99829.34;5001884;28;20045;-84
2023/09/22 05:45:05;;;;;;;9.07;2.20;;;;;;;22.73;71.95;99834.47;5003617;28;20054;-84
2023/09/22 05:48:00;;;;;;;3.30;1.33;;;;;;;22.73;71.84;99820.63;5006404;28;20053;-85
2023/09/22 05:51:01;;;;;;;8.93;1.52;;;;;;;22.74;71.77;99822.19;4999993;28;20045;-84
2023/09/22 05:53:55;;;;;;;3.58;1.80;;;;;;;22.69;71.46;99811.56;4986698;28;20053;-84
2023/09/22 05:56:47;;;;;;;3.25;1.65;;;;;;;22.69;71.69;99819.88;4980044;28;20037;-84
2023/09/22 05:59:40;;;;;;;4.57;1.50;;;;;;;22.70;71.80;99819.47;4994221;28;20046;-84
2023/09/22 06:02:33;;;;;;;5.80;1.73;;;;;;;22.66;71.72;99812.38;4984640;28;20058;-83
2023/09/22 06:05:29;;;;;;;5.80;1.95;;;;;;;22.60;71.55;99803.78;4978969;28;20046;-84
2023/09/22 06:08:21;;;;;;;6.25;1.92;;;;;;;22.59;71.84;99804.97;4978075;28;20041;-82
2023/09/22 06:11:16;;;;;;;16.95;2.15;;;;;;;22.60;71.42;99799.00;4978620;28;20054;-82
2023/09/22 06:14:09;;;;;;;4.38;2.00;;;;;;;22.64;71.44;99801.72;4982150;28;20057;-80
2023/09/22 06:17:01;;;;;;;6.68;2.10;;;;;;;22.50;71.86;99797.16;4979764;28;20062;-80
2023/09/22 06:19:55;;;;;;;6.25;2.20;;;;;;;22.50;71.86;99802.69;4977501;28;20057;-81
2023/09/22 06:22:50;;;;;;;6.63;1.70;;;;;;;22.40;72.25;99800.88;4976317;28;20050;-81
2023/09/22 06:25:42;;;;;;;6.72;2.13;;;;;;;22.41;72.06;99791.34;4966047;28;20050;-80
2023/09/22 06:28:37;;;;;;;6.68;2.20;;;;;;;22.47;71.94;99777.81;4978999;28;20062;-80
2023/09/22 06:31:31;;;;;;;4.82;1.67;;;;;;;22.47;71.98;99773.06;4979845;28;20038;-80
2023/09/22 06:34:26;;;;;;;4.57;1.98;;;;;;;22.46;72.30;99776.25;4978060;28;20049;-80
2023/09/22 06:37:15;;;;;;;9.93;1.80;;;;;;;22.51;71.78;99786.88;4982811;28;20077;-81
2023/09/22 06:40:14;;;;;;;4.57;1.65;;;;;;;22.53;72.13;99787.25;4978399;28;20042;-81
2023/09/22 06:43:06;;;;;;;5.72;1.70;;;;;;;22.55;71.97;99785.59;4976161;28;20420;-82
2023/09/22 06:46:04;;;;;;;5.28;1.38;;;;;;;22.55;72.20;99768.97;4974424;28;20045;-82
2023/09/22 06:48:58;;;;;;;3.10;1.70;;;;;;;22.59;71.90;99763.41;4979335;28;20041;-84
2023/09/22 06:51:50;;;;;;;3.90;1.85;;;;;;;22.57;72.35;99766.59;4990052;28;20690;-83
2023/09/22 06:54:45;;;;;;;5.60;1.65;;;;;;;22.52;72.40;99785.66;4987864;28;20045;-83
2023/09/22 06:57:40;;;;;;;5.10;1.65;;;;;;;22.53;72.39;99782.47;4981755;28;20038;-85
2023/09/22 07:00:35;;;;;;;5.20;1.73;;;;;;;22.55;72.50;99776.53;4980640;28;20074;-84
2023/09/22 07:03:30;;;;;;;4.05;1.55;;;;;;;22.57;72.15;99776.88;4989919;28;20045;-85
2023/09/22 07:06:25;;;;;;;7.65;1.75;;;;;;;22.56;72.36;99778.88;4983500;28;20049;-84
2023/09/22 07:09:19;;;;;;;4.18;1.67;;;;;;;22.56;72.29;99803.03;4976979;28;20042;-82
2023/09/22 07:12:13;;;;;;;7.38;2.13;;;;;;;22.46;73.18;99820.59;4984295;28;20053;-82
2023/09/22 07:15:09;;;;;;;6.82;2.25;;;;;;;22.45;73.24;99838.44;4976145;28;20497;-82
2023/09/22 07:18:10;;;;;;;6.35;1.90;;;;;;;22.46;73.74;99828.91;4973786;28;20046;-82
2023/09/22 07:21:04;;;;;;;3.25;1.55;;;;;;;22.39;73.90;99826.25;4976525;28;20045;-81
2023/09/22 07:23:58;;;;;;;5.43;2.05;;;;;;;22.30;73.82;99817.66;4979123;28;20522;-81
2023/09/22 07:26:49;;;;;;;21.65;3.90;;;;;;;22.23;74.16;99810.22;4970783;28;20050;-81
2023/09/22 07:29:42;;;;;;;15.45;2.25;;;;;;;22.25;73.59;99821.66;4976757;28;20042;-82
2023/09/22 07:32:30;;;;;;;3.65;1.67;;;;;;;22.15;74.54;99822.56;4970021;28;20050;-81
2023/09/22 07:35:27;;;;;;;6.35;1.75;;;;;;;22.20;73.07;99819.34;4978100;28;20050;-79
2023/09/22 07:38:23;;;;;;;4.25;1.92;;;;;;;22.13;74.28;99808.38;4975687;28;20042;-80
2023/09/22 07:41:17;;;;;;;5.65;1.98;;;;;;;22.05;74.91;99815.97;4974287;28;20053;-80
2023/09/22 07:44:09;;;;;;;6.10;2.72;;;;;;;21.99;75.77;99820.41;4971333;28;20041;-80
2023/09/22 07:47:03;;;;;;;5.10;2.50;;;;;;;22.04;75.51;99831.03;4974073;28;20049;-80
2023/09/22 07:49:56;;;;;;;12.00;2.13;;;;;;;21.90;76.19;99828.38;4978154;28;20045;-82
2023/09/22 07:52:46;;;;;;;12.43;2.22;;;;;;;21.71;75.39;99827.03;4979084;28;20061;-81
2023/09/22 07:55:35;;;;;;;6.35;3.03;;;;;;;21.55;75.88;99834.31;4969700;28;20050;-81
2023/09/22 07:58:25;;;;;;;9.63;2.17;;;;;;;21.33;77.50;99828.22;4975928;28;20407;-81
2023/09/22 08:01:20;;;;;;;3.97;2.22;;;;;;;20.76;80.18;99845.22;4973494;28;20038;-81
2023/09/22 08:04:11;;;;;;;12.73;2.55;;;;;;;20.56;83.29;99865.50;4979712;28;20062;-81
2023/09/22 08:07:03;;;;;;;12.38;3.88;;;;;;;20.13;85.87;99857.38;4975830;28;20530;-81
2023/09/22 08:09:51;;;;;;;9.30;2.65;;;;;;;20.31;85.44;99862.84;4977217;28;20053;-81
2023/09/22 08:12:44;;;;;;;11.63;3.45;;;;;;;20.00;89.01;99867.28;4976404;28;20041;-79
2023/09/22 08:15:37;;;;;;;12.40;3.70;;;;;;;19.87;90.33;99866.13;4979563;28;20053;-79
2023/09/22 08:18:26;;;;;;;10.20;4.00;;;;;;;20.24;91.58;99854.56;4977914;28;20511;-79
2023/09/22 08:21:20;;;;;;;5.80;3.33;;;;;;;20.42;87.71;99836.72;4981954;28;20408;-79
2023/09/22 08:24:11;;;;;;;8.13;3.83;;;;;;;20.43;87.98;99846.59;4984808;28;20078;-79
2023/09/22 08:27:03;;;;;;;11.05;3.75;;;;;;;20.14;90.99;99842.38;4983050;28;20518;-80
2023/09/22 08:29:55;;;;;;;12.23;3.47;;;;;;;20.09;90.50;99823.47;4991740;28;20042;-79
2023/09/22 08:32:49;;;;;;;11.25;3.40;;;;;;;20.06;91.54;99836.09;4987664;28;20057;-81
2023/09/22 08:35:36;;;;;;;6.35;3.70;;;;;;;20.72;86.54;99838.94;4992964;28;20046;-81
2023/09/22 08:38:28;;;;;;;8.57;3.38;;;;;;;20.82;86.91;99842.81;4999855;28;20045;-81
2023/09/22 08:41:23;;;;;;;12.73;5.22;;;;;;;20.99;86.64;99844.66;4986918;28;20110;-80
2023/09/22 08:44:18;;;;;;;10.68;3.40;;;;;;;20.96;84.41;99850.22;4991996;28;20057;-80
2023/09/22 08:47:03;;;;;;;12.32;3.25;;;;;;;21.00;84.75;99864.78;5000006;28;20049;-80
2023/09/22 08:49:53;;;;;;;6.93;3.05;;;;;;;21.01;83.58;99863.63;5000368;28;20055;-80
2023/09/22 08:52:51;;;;;;;6.47;3.65;;;;;;;21.23;82.87;99874.13;4971046;28;20049;-79
2023/09/22 08:55:48;;;;;;;11.95;3.65;;;;;;;21.25;83.15;99893.06;4991058;28;20054;-80
2023/09/22 08:58:42;;;;;;;54.03;12.23;;;;;;;21.33;82.49;99898.13;5004901;28;20100;-80
2023/09/22 09:01:33;;;;;;;12.85;4.13;;;;;;;21.37;81.93;99903.66;5001448;28;20049;-80
2023/09/22 09:04:40;;;;;;;10.77;4.25;;;;;;;21.33;82.58;99916.72;4987106;28;20051;-81
2023/09/22 09:07:34;;;;;;;12.65;4.15;;;;;;;21.29;83.16;99916.75;4963928;28;20046;-81
2023/09/22 09:10:35;;;;;;;11.80;3.50;;;;;;;21.22;83.89;99908.50;4960046;28;20055;-81
2023/09/22 09:13:27;;;;;;;10.02;3.22;;;;;;;21.27;83.27;99910.84;5003026;28;20049;-80
2023/09/22 09:16:32;;;;;;;10.90;3.70;;;;;;;20.73;87.24;99922.59;5003542;28;20061;-82
2023/09/22 09:19:27;;;;;;;6.25;3.40;;;;;;;20.62;88.87;99914.38;5002635;28;20423;-81
2023/09/22 09:22:20;;;;;;;8.32;4.35;;;;;;;20.45;91.05;99918.81;4986129;28;20514;-83
2023/09/22 09:25:14;;;;;;;17.42;4.38;;;;;;;20.69;89.55;99897.75;4984193;28;20049;-83
2023/09/22 09:28:04;;;;;;;9.63;4.88;;;;;;;20.98;88.12;99884.53;4974554;28;20049;-83
2023/09/22 09:31:02;;;;;;;10.20;4.05;;;;;;;21.10;86.43;99886.84;5001878;28;20056;-83
2023/09/22 09:33:57;;;;;;;6.00;3.30;;;;;;;21.34;85.45;99868.50;4999052;28;20436;-83
2023/09/22 09:37:10;;;;;;;5.10;3.55;;;;;;;21.29;85.50;99874.47;4989979;28;20050;-82
2023/09/22 09:40:03;;;;;;;8.98;4.32;;;;;;;21.45;84.49;99860.09;4962407;28;20062;-82
2023/09/22 09:43:01;;;;;;;5.80;3.88;;;;;;;21.54;84.03;99858.44;4965049;28;20053;-81
2023/09/22 09:46:01;;;;;;;7.47;4.07;;;;;;;21.37;84.58;99861.38;4962946;28;20058;-82
2023/09/22 09:48:56;;;;;;;6.32;3.78;;;;;;;21.27;85.82;99882.41;4965980;28;20050;-82
2023/09/22 09:51:51;;;;;;;12.70;3.88;;;;;;;21.37;85.24;99866.91;4964539;28;20050;-84
2023/09/22 09:54:54;;;;;;;13.02;4.78;;;;;;;21.43;84.82;99855.00;4981247;28;20420;-84
2023/09/22 09:57:51;;;;;;;10.57;5.05;;;;;;;21.42;84.42;99849.88;4969453;28;20046;-83
2023/09/22 10:00:46;;;;;;;11.38;4.38;;;;;;;21.44;84.24;99845.47;4969705;28;20408;-83
2023/09/22 10:03:41;;;;;;;9.45;4.40;;;;;;;21.43;84.90;99854.22;4982414;28;20059;-82
2023/09/22 10:06:34;;;;;;;;;;;;;;;21.53;84.24;99865.19;4969993;28;20054;-83
2023/09/22 10:09:28;;;;;;;12.20;4.45;;;;;;;21.51;84.61;99866.78;4966805;28;19919;-83
2023/09/22 10:12:23;;;;;;;10.52;4.28;;;;;;;21.67;83.54;99864.25;4968775;28;20075;-83
2023/09/22 10:15:18;;;;;;;11.27;4.55;;;;;;;21.67;83.18;99864.25;4966884;28;20050;-84
2023/09/22 10:18:17;;;;;;;21.63;6.10;;;;;;;21.73;83.41;99863.41;4979767;28;20042;-82
2023/09/22 10:21:07;;;;;;;10.52;4.32;;;;;;;21.57;84.21;99867.91;5005411;28;20054;-84
2023/09/22 10:24:19;;;;;;;10.50;4.10;;;;;;;21.76;83.10;99861.78;4976767;28;20042;-83
2023/09/22 10:27:13;;;;;;;11.05;5.13;;;;;;;21.82;82.76;99854.59;4993035;28;20041;-85
2023/09/22 10:30:08;;;;;;;7.40;3.65;;;;;;;21.69;83.02;99850.75;4984498;28;20046;-86
2023/09/22 10:33:29;;;;;;;11.60;4.10;;;;;;;21.80;82.79;99828.50;4989738;28;20046;-85
2023/09/22 10:36:49;;;;;;;12.85;4.13;;;;;;;21.84;82.72;99834.81;4981465;28;20038;-85
2023/09/22 10:40:09;;;;;;;8.25;3.55;;;;;;;21.73;82.46;99832.16;4976370;28;20050;-84
2023/09/22 10:43:06;;;;;;;5.20;3.30;;;;;;;21.81;82.64;99825.34;4997867;28;20058;-83
2023/09/22 10:45:59;;;;;;;15.90;4.15;;;;;;;21.84;82.04;99830.03;4973526;28;20411;-83
2023/09/22 10:48:51;;;;;;;6.05;2.65;;;;;;;21.97;81.99;99828.34;4984784;28;20515;-82
2023/09/22 10:51:44;;;;;;;7.03;3.00;;;;;;;21.78;82.79;99826.19;4980881;28;20054;-83
2023/09/22 10:54:45;;;;;;;7.07;3.17;;;;;;;21.93;82.48;99827.59;4979086;28;20042;-83
2023/09/22 10:57:39;;;;;;;5.95;2.58;;;;;;;21.97;82.03;99824.78;4978961;28;20054;-84
2023/09/22 11:00:49;;;;;;;10.25;3.33;;;;;;;21.84;81.91;99829.28;4979886;28;20041;-83
2023/09/22 11:03:56;;;;;;;5.72;2.95;;;;;;;21.94;81.42;99818.09;4964675;28;20054;-81
2023/09/22 11:06:51;;;;;;;7.72;3.15;;;;;;;22.00;80.80;99810.91;4994362;28;20046;-83
2023/09/22 11:09:45;;;;;;;10.43;2.35;;;;;;;21.93;80.92;99810.97;4989863;28;20057;-83
2023/09/22 11:12:40;;;;;;;7.32;2.67;;;;;;;21.84;81.33;99805.13;4985029;28;20050;-82
2023/09/22 11:15:35;;;;;;;8.05;3.10;;;;;;;21.95;80.87;99803.06;4981260;28;20053;-82
2023/09/22 11:18:35;;;;;;;9.80;3.00;;;;;;;21.73;81.25;99802.50;4988176;28;20188;-82
2023/09/22 11:21:36;;;;;;;10.30;3.08;;;;;;;21.76;81.48;99790.59;4994424;28;20046;-82
2023/09/22 11:24:31;;;;;;;10.60;2.90;;;;;;;21.82;80.94;99788.16;4981355;28;20046;-82
2023/09/22 11:27:23;;;;;;;5.75;2.58;;;;;;;21.70;80.79;99780.38;4984943;28;20054;-82
2023/09/22 11:30:36;;;;;;;7.22;2.58;;;;;;;21.84;80.53;99773.91;4982977;28;20042;-81
2023/09/22 11:33:26;;;;;;;8.23;2.55;;;;;;;21.80;80.72;99773.16;4997565;28;20049;-81
2023/09/22 11:36:21;;;;;;;6.68;3.50;;;;;;;22.01;80.39;99782.00;4986143;28;20111;-82
2023/09/22 11:39:27;;;;;;;13.05;3.10;;;;;;;22.09;80.03;99780.75;4992700;28;20045;-83
2023/09/22 11:42:24;;;;;;;5.45;2.47;;;;;;;21.97;80.17;99783.25;4967803;28;20046;-83
2023/09/22 11:45:23;;;;;;;7.32;2.75;;;;;;;22.21;78.63;99770.28;4979435;28;20053;-84
2023/09/22 11:48:17;;;;;;;10.18;3.35;;;;;;;22.23;77.99;99776.19;4990870;28;20046;-83
2023/09/22 11:51:12;;;;;;;11.20;3.10;;;;;;;22.31;78.13;99763.81;4979167;28;20054;-83
2023/09/22 11:54:07;;;;;;;8.82;2.60;;;;;;;22.47;76.62;99758.44;4983618;28;20045;-83
2023/09/22 11:56:59;;;;;;;12.80;3.30;;;;;;;22.41;74.67;99766.41;4964739;28;20049;-83
2023/09/22 12:00:02;;;;;;;5.35;2.70;;;;;;;22.40;75.21;99764.84;4982981;28;20050;-83
2023/09/22 12:02:57;;;;;;;13.55;3.00;;;;;;;22.33;76.47;99762.19;4991898;28;20049;-84
2023/09/22 12:05:49;;;;;;;7.70;2.72;;;;;;;22.25;75.54;99755.19;4988224;28;20050;-83
2023/09/22 12:08:44;;;;;;;6.78;3.00;;;;;;;22.28;75.27;99759.13;4986455;28;20054;-86
2023/09/22 12:11:38;;;;;;;5.22;2.88;;;;;;;22.34;76.85;99757.44;4992522;28;20046;-84
2023/09/22 12:14:33;;;;;;;5.38;2.05;;;;;;;22.36;76.15;99757.78;4978325;28;20050;-84
2023/09/22 12:17:27;;;;;;;5.45;2.92;;;;;;;22.42;75.98;99750.59;4991366;28;20037;-84
2023/09/22 12:20:22;;;;;;;8.70;2.70;;;;;;;22.39;75.14;99729.28;4995591;28;20053;-84
2023/09/22 12:23:17;;;;;;;6.85;2.25;;;;;;;22.40;74.47;99723.28;5007843;28;20049;-85
2023/09/22 12:26:09;;;;;;;4.50;2.17;;;;;;;22.45;74.76;99744.22;5003152;28;20053;-84
2023/09/22 12:29:03;;;;;;;9.48;2.92;;;;;;;22.38;72.71;99747.09;5007433;28;20045;-83
2023/09/22 12:31:58;;;;;;;8.43;2.45;;;;;;;22.43;74.26;99750.19;5007211;28;20061;-84
2023/09/22 12:34:50;;;;;;;8.55;3.10;;;;;;;22.43;75.51;99744.63;5009428;28;20049;-87
2023/09/22 12:37:42;;;;;;;7.50;2.40;;;;;;;22.47;74.96;99741.81;5025304;28;20045;-85
2023/09/22 12:40:36;;;;;;;3.83;2.05;;;;;;;22.72;73.63;99738.66;5019158;28;20033;-87
2023/09/22 12:43:34;;;;;;;8.43;2.42;;;;;;;22.59;73.47;99760.63;5017921;28;20052;-85
2023/09/22 12:46:29;;;;;;;14.93;2.70;;;;;;;22.57;74.29;99755.50;5006063;28;20163;-84
2023/09/22 12:49:21;;;;;;;8.80;2.55;;;;;;;22.58;75.70;99757.06;5002900;28;20411;-83
2023/09/22 12:52:15;;;;;;;6.28;2.92;;;;;;;22.54;75.47;99758.34;5007652;28;20408;-84
2023/09/22 12:55:06;;;;;;;9.82;3.17;;;;;;;22.41;73.70;99758.13;5009122;28;20049;-84
2023/09/22 12:57:58;;;;;;;12.43;3.13;;;;;;;22.32;73.18;99768.94;5009252;28;20042;-84
2023/09/22 13:00:53;;;;;;;5.40;2.33;;;;;;;22.27;73.25;99761.09;5006998;28;20069;-84
2023/09/22 13:03:47;;;;;;;6.40;2.60;;;;;;;22.28;74.04;99772.97;4981080;28;20054;-84
2023/09/22 13:06:42;;;;;;;6.20;2.80;;;;;;;22.33;74.26;99761.41;4970216;28;20046;-85
2023/09/22 13:09:34;;;;;;;5.43;1.95;;;;;;;22.26;74.52;99762.28;4976108;28;20042;-83
2023/09/22 13:12:29;;;;;;;5.30;2.70;;;;;;;22.23;74.33;99756.81;4964127;28;20043;-85
2023/09/22 13:15:21;;;;;;;7.07;2.85;;;;;;;22.22;73.61;99756.03;4970000;28;20046;-84
2023/09/22 13:18:15;;;;;;;6.35;2.63;;;;;;;22.27;74.56;99754.78;4979892;28;20050;-84
2023/09/22 13:21:13;;;;;;;18.02;3.30;;;;;;;22.33;74.38;99772.50;4977390;28;20286;-84
2023/09/22 13:24:06;;;;;;;7.93;2.95;;;;;;;22.17;74.62;99776.66;4972898;28;20078;-84
2023/09/22 13:26:59;;;;;;;9.45;3.25;;;;;;;22.15;75.64;99779.06;4982621;28;20041;-84
2023/09/22 13:29:53;;;;;;;6.70;2.58;;;;;;;22.04;75.16;99764.59;5001842;28;20049;-85
2023/09/22 13:32:49;;;;;;;10.43;2.47;;;;;;;21.99;75.65;99767.03;5000966;28;20102;-84
2023/09/22 13:35:44;;;;;;;10.75;2.60;;;;;;;21.89;75.21;99770.69;4999737;28;20057;-84
2023/09/22 13:38:39;;;;;;;8.25;3.13;;;;;;;21.87;77.25;99757.25;5003891;28;20522;-84
2023/09/22 13:41:31;;;;;;;7.93;2.75;;;;;;;21.88;77.63;99755.28;4989379;28;20066;-83